sensor_id;sensor_type;location;lat;lon;timestamp;temperature;humidity
10472;DHT22;5283;48.876;8.962;2022-10-14T00:02:05;11.30;99.90
10472;DHT22;5283;48.876;8.962;2022-10-14T00:04:32;11.40;99.90
10472;DHT22;5283;48.876;8.962;2022-10-14T00:06:58;11.40;99.90
10472;DHT22;5283;48.876;8.962;2022-10-14T00:09:25;11.30;99.90
10472;DHT22;5283;48.876;8.962;2022-10-14T00:11:52;11.30;99.90
10472;DHT22;5283;48.876;8.962;2022-10-14T00:14:20;11.30;99.90
10472;DHT22;5283;48.876;8.962;2022-10-14T00:16:48;11.30;99.90
10472;DHT22;5283;48.876;8.962;2022-10-14T00:19:17;11.40;99.90
10472;DHT22;5283;48.876;8.962;2022-10-14T00:21:45;11.40;99.90
10472;DHT22;5283;48.876;8.962;2022-10-14T00:24:13;11.40;99.90
10472;DHT22;5283;48.876;8.962;2022-10-14T00:26:41;11.40;99.90
10472;DHT22;5283;48.876;8.962;2022-10-14T00:29:12;11.40;99.90
10472;DHT22;5283;48.876;8.962;2022-10-14T00:31:39;11.40;99.90
10472;DHT22;5283;48.876;8.962;2022-10-14T00:34:05;11.40;99.90
10472;DHT22;5283;48.876;8.962;2022-10-14T00:36:32;11.40;99.90
10472;DHT22;5283;48.876;8.962;2022-10-14T00:38:59;11.40;99.90
10472;DHT22;5283;48.876;8.962;2022-10-14T00:41:29;11.40;99.90
10472;DHT22;5283;48.876;8.962;2022-10-14T00:44:01;11.40;99.90
10472;DHT22;5283;48.876;8.962;2022-10-14T00:46:37;11.40;99.90
10472;DHT22;5283;48.876;8.962;2022-10-14T00:52:03;11.40;99.90
10472;DHT22;5283;48.876;8.962;2022-10-14T00:54:47;11.40;99.90
10472;DHT22;5283;48.876;8.962;2022-10-14T00:57:16;11.40;99.90
10472;DHT22;5283;48.876;8.962;2022-10-14T00:59:43;11.40;99.90
10472;DHT22;5283;48.876;8.962;2022-10-14T01:02:09;11.40;99.90
10472;DHT22;5283;48.876;8.962;2022-10-14T01:04:38;11.50;99.90
10472;DHT22;5283;48.876;8.962;2022-10-14T01:11:08;11.40;99.90
10472;DHT22;5283;48.876;8.962;2022-10-14T01:13:48;11.30;99.90
10472;DHT22;5283;48.876;8.962;2022-10-14T01:19:15;11.40;99.90
10472;DHT22;5283;48.876;8.962;2022-10-14T01:22:07;11.40;99.90
10472;DHT22;5283;48.876;8.962;2022-10-14T01:24:54;11.30;99.90
10472;DHT22;5283;48.876;8.962;2022-10-14T01:30:20;11.40;99.90
10472;DHT22;5283;48.876;8.962;2022-10-14T01:35:25;11.50;99.90
10472;DHT22;5283;48.876;8.962;2022-10-14T01:37:58;11.50;99.90
10472;DHT22;5283;48.876;8.962;2022-10-14T01:40:39;11.50;99.90
10472;DHT22;5283;48.876;8.962;2022-10-14T01:43:07;11.50;99.90
10472;DHT22;5283;48.876;8.962;2022-10-14T01:45:36;11.50;99.90
10472;DHT22;5283;48.876;8.962;2022-10-14T01:48:04;11.50;99.90
10472;DHT22;5283;48.876;8.962;2022-10-14T01:50:33;11.50;99.90
10472;DHT22;5283;48.876;8.962;2022-10-14T01:53:07;11.60;99.90
10472;DHT22;5283;48.876;8.962;2022-10-14T01:55:38;11.60;99.90
10472;DHT22;5283;48.876;8.962;2022-10-14T01:58:07;11.60;99.90
10472;DHT22;5283;48.876;8.962;2022-10-14T02:00:36;11.70;99.90
10472;DHT22;5283;48.876;8.962;2022-10-14T02:03:03;11.70;99.90
10472;DHT22;5283;48.876;8.962;2022-10-14T02:05:45;11.80;99.90
10472;DHT22;5283;48.876;8.962;2022-10-14T02:08:38;11.90;99.90
10472;DHT22;5283;48.876;8.962;2022-10-14T02:11:11;12.00;99.90
10472;DHT22;5283;48.876;8.962;2022-10-14T02:14:03;12.00;99.90
10472;DHT22;5283;48.876;8.962;2022-10-14T02:16:42;12.10;99.90
10472;DHT22;5283;48.876;8.962;2022-10-14T02:21:49;12.00;99.90
10472;DHT22;5283;48.876;8.962;2022-10-14T02:24:25;12.00;99.90
10472;DHT22;5283;48.876;8.962;2022-10-14T02:26:55;11.90;99.90
10472;DHT22;5283;48.876;8.962;2022-10-14T02:29:23;12.00;99.90
10472;DHT22;5283;48.876;8.962;2022-10-14T02:31:51;11.90;99.90
10472;DHT22;5283;48.876;8.962;2022-10-14T02:34:21;11.90;99.90
10472;DHT22;5283;48.876;8.962;2022-10-14T02:36:49;11.80;99.90
10472;DHT22;5283;48.876;8.962;2022-10-14T02:39:29;11.80;99.90
10472;DHT22;5283;48.876;8.962;2022-10-14T02:41:56;11.80;99.90
10472;DHT22;5283;48.876;8.962;2022-10-14T02:44:23;11.80;99.90
10472;DHT22;5283;48.876;8.962;2022-10-14T02:46:50;11.80;99.90
10472;DHT22;5283;48.876;8.962;2022-10-14T02:49:17;11.70;99.90
10472;DHT22;5283;48.876;8.962;2022-10-14T02:51:44;11.70;99.90
10472;DHT22;5283;48.876;8.962;2022-10-14T02:54:10;11.70;99.90
10472;DHT22;5283;48.876;8.962;2022-10-14T02:56:37;11.70;99.90
10472;DHT22;5283;48.876;8.962;2022-10-14T02:59:04;11.70;99.90
10472;DHT22;5283;48.876;8.962;2022-10-14T03:01:31;11.70;99.90
10472;DHT22;5283;48.876;8.962;2022-10-14T03:04:00;11.70;99.90
10472;DHT22;5283;48.876;8.962;2022-10-14T03:06:27;11.70;99.90
10472;DHT22;5283;48.876;8.962;2022-10-14T03:08:54;11.70;99.90
10472;DHT22;5283;48.876;8.962;2022-10-14T03:11:20;11.70;99.90
10472;DHT22;5283;48.876;8.962;2022-10-14T03:13:47;11.70;99.90
10472;DHT22;5283;48.876;8.962;2022-10-14T03:16:13;11.70;99.90
10472;DHT22;5283;48.876;8.962;2022-10-14T03:18:40;11.70;99.90
10472;DHT22;5283;48.876;8.962;2022-10-14T03:21:07;11.60;99.90
10472;DHT22;5283;48.876;8.962;2022-10-14T03:23:33;11.60;99.90
10472;DHT22;5283;48.876;8.962;2022-10-14T03:26:00;11.60;99.90
10472;DHT22;5283;48.876;8.962;2022-10-14T03:28:27;11.60;99.90
10472;DHT22;5283;48.876;8.962;2022-10-14T03:30:53;11.50;99.90
10472;DHT22;5283;48.876;8.962;2022-10-14T03:33:20;11.50;99.90
10472;DHT22;5283;48.876;8.962;2022-10-14T03:35:49;11.40;99.90
10472;DHT22;5283;48.876;8.962;2022-10-14T03:38:15;11.50;99.90
10472;DHT22;5283;48.876;8.962;2022-10-14T03:40:42;11.50;99.90
10472;DHT22;5283;48.876;8.962;2022-10-14T03:43:09;11.50;99.90
10472;DHT22;5283;48.876;8.962;2022-10-14T03:45:36;11.50;99.90
10472;DHT22;5283;48.876;8.962;2022-10-14T03:48:03;11.40;99.90
10472;DHT22;5283;48.876;8.962;2022-10-14T03:50:30;11.40;99.90
10472;DHT22;5283;48.876;8.962;2022-10-14T03:52:57;11.40;99.90
10472;DHT22;5283;48.876;8.962;2022-10-14T03:55:23;11.30;99.90
10472;DHT22;5283;48.876;8.962;2022-10-14T03:57:50;11.30;99.90
10472;DHT22;5283;48.876;8.962;2022-10-14T04:00:17;11.20;99.90
10472;DHT22;5283;48.876;8.962;2022-10-14T04:02:44;11.10;99.90
10472;DHT22;5283;48.876;8.962;2022-10-14T04:05:11;11.10;99.90
10472;DHT22;5283;48.876;8.962;2022-10-14T04:07:38;11.10;99.90
10472;DHT22;5283;48.876;8.962;2022-10-14T04:10:05;11.10;99.90
10472;DHT22;5283;48.876;8.962;2022-10-14T04:12:32;11.10;99.90
10472;DHT22;5283;48.876;8.962;2022-10-14T04:14:58;11.20;99.90
10472;DHT22;5283;48.876;8.962;2022-10-14T04:17:25;11.20;99.90
10472;DHT22;5283;48.876;8.962;2022-10-14T04:19:52;11.20;99.90
10472;DHT22;5283;48.876;8.962;2022-10-14T04:22:18;11.20;99.90
10472;DHT22;5283;48.876;8.962;2022-10-14T04:24:45;11.20;99.90
10472;DHT22;5283;48.876;8.962;2022-10-14T04:27:12;11.20;99.90
10472;DHT22;5283;48.876;8.962;2022-10-14T04:29:39;11.30;99.90
10472;DHT22;5283;48.876;8.962;2022-10-14T04:32:05;11.30;99.90
10472;DHT22;5283;48.876;8.962;2022-10-14T04:34:32;11.30;99.90
10472;DHT22;5283;48.876;8.962;2022-10-14T04:36:59;11.30;99.90
10472;DHT22;5283;48.876;8.962;2022-10-14T04:39:25;11.30;99.90
10472;DHT22;5283;48.876;8.962;2022-10-14T04:41:52;11.40;99.90
10472;DHT22;5283;48.876;8.962;2022-10-14T04:44:19;11.40;99.90
10472;DHT22;5283;48.876;8.962;2022-10-14T04:46:45;11.40;99.90
10472;DHT22;5283;48.876;8.962;2022-10-14T04:49:12;11.40;99.90
10472;DHT22;5283;48.876;8.962;2022-10-14T04:51:40;11.30;99.90
10472;DHT22;5283;48.876;8.962;2022-10-14T04:54:06;11.40;99.90
10472;DHT22;5283;48.876;8.962;2022-10-14T04:56:33;11.40;99.90
10472;DHT22;5283;48.876;8.962;2022-10-14T04:59:00;11.40;99.90
10472;DHT22;5283;48.876;8.962;2022-10-14T05:01:27;11.50;99.90
10472;DHT22;5283;48.876;8.962;2022-10-14T05:03:57;11.50;99.90
10472;DHT22;5283;48.876;8.962;2022-10-14T05:06:23;11.50;99.90
10472;DHT22;5283;48.876;8.962;2022-10-14T05:08:50;11.50;99.90
10472;DHT22;5283;48.876;8.962;2022-10-14T05:11:17;11.50;99.90
10472;DHT22;5283;48.876;8.962;2022-10-14T05:13:43;11.40;99.90
10472;DHT22;5283;48.876;8.962;2022-10-14T05:16:10;11.30;99.90
10472;DHT22;5283;48.876;8.962;2022-10-14T05:18:37;11.30;99.90
10472;DHT22;5283;48.876;8.962;2022-10-14T05:21:04;11.20;99.90
10472;DHT22;5283;48.876;8.962;2022-10-14T05:23:30;11.20;99.90
10472;DHT22;5283;48.876;8.962;2022-10-14T05:25:57;11.20;99.90
10472;DHT22;5283;48.876;8.962;2022-10-14T05:28:24;11.20;99.90
10472;DHT22;5283;48.876;8.962;2022-10-14T05:30:51;11.10;99.90
10472;DHT22;5283;48.876;8.962;2022-10-14T05:33:18;11.10;99.90
10472;DHT22;5283;48.876;8.962;2022-10-14T05:35:45;11.20;99.90
10472;DHT22;5283;48.876;8.962;2022-10-14T05:38:23;11.20;99.90
10472;DHT22;5283;48.876;8.962;2022-10-14T05:40:51;11.30;99.90
10472;DHT22;5283;48.876;8.962;2022-10-14T05:43:18;11.30;99.90
10472;DHT22;5283;48.876;8.962;2022-10-14T05:45:44;11.30;99.90
10472;DHT22;5283;48.876;8.962;2022-10-14T05:48:11;11.30;99.90
10472;DHT22;5283;48.876;8.962;2022-10-14T05:50:38;11.40;99.90
10472;DHT22;5283;48.876;8.962;2022-10-14T05:53:05;11.40;99.90
10472;DHT22;5283;48.876;8.962;2022-10-14T05:55:31;11.50;99.90
10472;DHT22;5283;48.876;8.962;2022-10-14T05:57:58;11.50;99.90
10472;DHT22;5283;48.876;8.962;2022-10-14T06:00:25;11.50;99.90
10472;DHT22;5283;48.876;8.962;2022-10-14T06:02:52;11.60;99.90
10472;DHT22;5283;48.876;8.962;2022-10-14T06:05:18;11.60;99.90
10472;DHT22;5283;48.876;8.962;2022-10-14T06:07:45;11.60;99.90
10472;DHT22;5283;48.876;8.962;2022-10-14T06:10:11;11.70;99.90
10472;DHT22;5283;48.876;8.962;2022-10-14T06:12:38;11.70;99.90
10472;DHT22;5283;48.876;8.962;2022-10-14T06:15:05;11.80;99.90
10472;DHT22;5283;48.876;8.962;2022-10-14T06:17:32;11.80;99.90
10472;DHT22;5283;48.876;8.962;2022-10-14T06:19:59;11.80;99.90
10472;DHT22;5283;48.876;8.962;2022-10-14T06:22:27;11.90;99.90
10472;DHT22;5283;48.876;8.962;2022-10-14T06:24:54;11.90;99.90
10472;DHT22;5283;48.876;8.962;2022-10-14T06:27:20;11.90;99.90
10472;DHT22;5283;48.876;8.962;2022-10-14T06:29:47;12.00;99.90
10472;DHT22;5283;48.876;8.962;2022-10-14T06:32:14;12.00;99.90
10472;DHT22;5283;48.876;8.962;2022-10-14T06:34:41;12.10;99.90
10472;DHT22;5283;48.876;8.962;2022-10-14T06:37:07;12.10;99.90
10472;DHT22;5283;48.876;8.962;2022-10-14T06:39:34;12.10;99.90
10472;DHT22;5283;48.876;8.962;2022-10-14T06:42:01;12.20;99.90
10472;DHT22;5283;48.876;8.962;2022-10-14T06:44:28;12.20;99.90
10472;DHT22;5283;48.876;8.962;2022-10-14T06:46:55;12.30;99.90
10472;DHT22;5283;48.876;8.962;2022-10-14T06:49:21;12.30;99.90
10472;DHT22;5283;48.876;8.962;2022-10-14T06:51:48;12.30;99.90
10472;DHT22;5283;48.876;8.962;2022-10-14T06:54:15;12.40;99.90
10472;DHT22;5283;48.876;8.962;2022-10-14T06:56:42;12.40;99.90
10472;DHT22;5283;48.876;8.962;2022-10-14T06:59:09;12.40;99.90
10472;DHT22;5283;48.876;8.962;2022-10-14T07:01:35;12.40;99.90
10472;DHT22;5283;48.876;8.962;2022-10-14T07:04:03;12.40;99.90
10472;DHT22;5283;48.876;8.962;2022-10-14T07:06:30;12.40;99.90
10472;DHT22;5283;48.876;8.962;2022-10-14T07:08:57;12.40;99.90
10472;DHT22;5283;48.876;8.962;2022-10-14T07:11:23;12.40;99.90
10472;DHT22;5283;48.876;8.962;2022-10-14T07:13:50;12.50;99.90
10472;DHT22;5283;48.876;8.962;2022-10-14T07:16:16;12.60;99.90
10472;DHT22;5283;48.876;8.962;2022-10-14T07:18:43;12.70;99.90
10472;DHT22;5283;48.876;8.962;2022-10-14T07:21:10;12.80;99.90
10472;DHT22;5283;48.876;8.962;2022-10-14T07:23:37;12.80;99.90
10472;DHT22;5283;48.876;8.962;2022-10-14T07:26:04;13.00;99.90
10472;DHT22;5283;48.876;8.962;2022-10-14T07:28:30;13.20;99.90
10472;DHT22;5283;48.876;8.962;2022-10-14T07:31:06;13.40;99.90
10472;DHT22;5283;48.876;8.962;2022-10-14T07:33:37;13.50;99.90
10472;DHT22;5283;48.876;8.962;2022-10-14T07:36:08;13.70;99.90
10472;DHT22;5283;48.876;8.962;2022-10-14T07:38:36;13.80;99.90
10472;DHT22;5283;48.876;8.962;2022-10-14T07:41:06;14.00;99.90
10472;DHT22;5283;48.876;8.962;2022-10-14T07:43:34;14.00;99.90
10472;DHT22;5283;48.876;8.962;2022-10-14T07:46:03;14.20;99.90
10472;DHT22;5283;48.876;8.962;2022-10-14T07:48:31;14.30;99.90
10472;DHT22;5283;48.876;8.962;2022-10-14T07:51:10;14.50;99.90
10472;DHT22;5283;48.876;8.962;2022-10-14T07:53:37;14.60;99.90
10472;DHT22;5283;48.876;8.962;2022-10-14T07:56:03;14.80;99.90
10472;DHT22;5283;48.876;8.962;2022-10-14T07:58:31;15.00;99.90
10472;DHT22;5283;48.876;8.962;2022-10-14T08:00:58;15.20;99.90
10472;DHT22;5283;48.876;8.962;2022-10-14T08:03:25;15.30;99.90
10472;DHT22;5283;48.876;8.962;2022-10-14T08:06:02;15.50;99.90
10472;DHT22;5283;48.876;8.962;2022-10-14T08:08:30;15.50;99.90
10472;DHT22;5283;48.876;8.962;2022-10-14T08:11:09;15.50;99.90
10472;DHT22;5283;48.876;8.962;2022-10-14T08:13:37;15.40;99.90
10472;DHT22;5283;48.876;8.962;2022-10-14T08:16:20;15.30;99.90
10472;DHT22;5283;48.876;8.962;2022-10-14T08:18:47;15.10;99.90
10472;DHT22;5283;48.876;8.962;2022-10-14T08:21:16;15.10;99.90
10472;DHT22;5283;48.876;8.962;2022-10-14T08:23:44;15.00;99.90
10472;DHT22;5283;48.876;8.962;2022-10-14T08:26:34;14.90;99.90
10472;DHT22;5283;48.876;8.962;2022-10-14T08:29:20;14.90;99.90
10472;DHT22;5283;48.876;8.962;2022-10-14T08:31:50;14.90;99.90
10472;DHT22;5283;48.876;8.962;2022-10-14T08:34:18;14.90;99.90
10472;DHT22;5283;48.876;8.962;2022-10-14T08:36:50;14.80;99.90
10472;DHT22;5283;48.876;8.962;2022-10-14T08:39:17;14.90;99.90
10472;DHT22;5283;48.876;8.962;2022-10-14T08:42:07;14.80;99.90
10472;DHT22;5283;48.876;8.962;2022-10-14T08:44:56;14.90;99.90
10472;DHT22;5283;48.876;8.962;2022-10-14T08:47:50;15.00;99.90
10472;DHT22;5283;48.876;8.962;2022-10-14T08:50:32;15.10;99.90
10472;DHT22;5283;48.876;8.962;2022-10-14T08:53:24;15.20;99.90
10472;DHT22;5283;48.876;8.962;2022-10-14T08:55:57;15.30;99.90
10472;DHT22;5283;48.876;8.962;2022-10-14T08:58:33;15.30;99.90
10472;DHT22;5283;48.876;8.962;2022-10-14T09:01:09;15.30;99.90
10472;DHT22;5283;48.876;8.962;2022-10-14T09:03:40;15.40;99.90
10472;DHT22;5283;48.876;8.962;2022-10-14T09:06:19;15.50;99.90
10472;DHT22;5283;48.876;8.962;2022-10-14T09:08:48;15.50;99.90
10472;DHT22;5283;48.876;8.962;2022-10-14T09:11:18;15.70;99.90
10472;DHT22;5283;48.876;8.962;2022-10-14T09:13:51;15.80;99.90
10472;DHT22;5283;48.876;8.962;2022-10-14T09:16:22;15.90;99.90
10472;DHT22;5283;48.876;8.962;2022-10-14T09:18:53;15.90;99.90
10472;DHT22;5283;48.876;8.962;2022-10-14T09:21:35;16.10;99.90
10472;DHT22;5283;48.876;8.962;2022-10-14T09:24:39;16.10;99.90
10472;DHT22;5283;48.876;8.962;2022-10-14T09:27:12;16.10;99.90
10472;DHT22;5283;48.876;8.962;2022-10-14T09:29:44;16.20;99.90
10472;DHT22;5283;48.876;8.962;2022-10-14T09:32:15;16.20;99.90
10472;DHT22;5283;48.876;8.962;2022-10-14T09:34:50;16.20;99.90
10472;DHT22;5283;48.876;8.962;2022-10-14T09:37:35;16.20;99.90
10472;DHT22;5283;48.876;8.962;2022-10-14T09:40:30;16.10;99.90
10472;DHT22;5283;48.876;8.962;2022-10-14T09:43:05;16.20;99.90
10472;DHT22;5283;48.876;8.962;2022-10-14T09:46:00;16.20;99.90
10472;DHT22;5283;48.876;8.962;2022-10-14T09:48:48;16.20;99.90
10472;DHT22;5283;48.876;8.962;2022-10-14T09:51:28;16.20;99.90
10472;DHT22;5283;48.876;8.962;2022-10-14T09:53:57;16.30;99.90
10472;DHT22;5283;48.876;8.962;2022-10-14T09:56:38;16.40;99.90
10472;DHT22;5283;48.876;8.962;2022-10-14T09:59:17;16.50;99.90
10472;DHT22;5283;48.876;8.962;2022-10-14T10:01:56;16.60;99.90
10472;DHT22;5283;48.876;8.962;2022-10-14T10:06:52;17.00;99.90
10472;DHT22;5283;48.876;8.962;2022-10-14T10:09:19;17.20;99.90
10472;DHT22;5283;48.876;8.962;2022-10-14T10:11:47;17.50;99.90
10472;DHT22;5283;48.876;8.962;2022-10-14T10:14:24;17.70;99.90
10472;DHT22;5283;48.876;8.962;2022-10-14T10:17:11;18.00;99.90
10472;DHT22;5283;48.876;8.962;2022-10-14T10:19:46;18.30;99.90
10472;DHT22;5283;48.876;8.962;2022-10-14T10:22:28;18.40;99.90
10472;DHT22;5283;48.876;8.962;2022-10-14T10:27:34;18.80;99.90
10472;DHT22;5283;48.876;8.962;2022-10-14T10:30:20;18.80;99.90
10472;DHT22;5283;48.876;8.962;2022-10-14T10:38:57;18.80;99.90
10472;DHT22;5283;48.876;8.962;2022-10-14T10:47:54;18.70;99.90
10472;DHT22;5283;48.876;8.962;2022-10-14T11:01:22;18.60;99.90
10472;DHT22;5283;48.876;8.962;2022-10-14T11:04:27;18.60;99.90
10472;DHT22;5283;48.876;8.962;2022-10-14T11:07:10;18.00;99.90
10472;DHT22;5283;48.876;8.962;2022-10-14T11:10:25;17.90;99.90
10472;DHT22;5283;48.876;8.962;2022-10-14T11:16:06;17.40;99.90
10472;DHT22;5283;48.876;8.962;2022-10-14T11:18:44;17.00;99.90
10472;DHT22;5283;48.876;8.962;2022-10-14T11:24:33;16.60;99.90
10472;DHT22;5283;48.876;8.962;2022-10-14T11:30:19;16.60;99.90
10472;DHT22;5283;48.876;8.962;2022-10-14T11:43:49;17.00;99.90
10472;DHT22;5283;48.876;8.962;2022-10-14T11:46:20;17.10;99.90
10472;DHT22;5283;48.876;8.962;2022-10-14T11:48:54;17.40;99.90
10472;DHT22;5283;48.876;8.962;2022-10-14T11:54:12;18.00;99.90
10472;DHT22;5283;48.876;8.962;2022-10-14T11:59:35;18.60;99.90
10472;DHT22;5283;48.876;8.962;2022-10-14T12:02:30;18.70;99.90
10472;DHT22;5283;48.876;8.962;2022-10-14T12:05:19;18.80;99.90
10472;DHT22;5283;48.876;8.962;2022-10-14T12:08:06;18.90;99.90
10472;DHT22;5283;48.876;8.962;2022-10-14T12:10:38;19.10;99.90
10472;DHT22;5283;48.876;8.962;2022-10-14T12:13:13;19.30;99.90
10472;DHT22;5283;48.876;8.962;2022-10-14T12:15:46;19.40;99.90
10472;DHT22;5283;48.876;8.962;2022-10-14T12:18:14;19.60;99.90
10472;DHT22;5283;48.876;8.962;2022-10-14T12:20:55;19.60;99.90
10472;DHT22;5283;48.876;8.962;2022-10-14T12:23:37;19.70;99.90
10472;DHT22;5283;48.876;8.962;2022-10-14T12:26:26;19.80;99.90
10472;DHT22;5283;48.876;8.962;2022-10-14T12:29:01;19.90;99.90
10472;DHT22;5283;48.876;8.962;2022-10-14T12:31:37;20.10;99.90
10472;DHT22;5283;48.876;8.962;2022-10-14T12:36:38;20.00;99.90
10472;DHT22;5283;48.876;8.962;2022-10-14T12:39:32;19.80;99.90
10472;DHT22;5283;48.876;8.962;2022-10-14T12:42:03;19.60;99.90
10472;DHT22;5283;48.876;8.962;2022-10-14T12:49:50;19.70;99.90
10472;DHT22;5283;48.876;8.962;2022-10-14T12:52:27;19.80;99.90
10472;DHT22;5283;48.876;8.962;2022-10-14T12:54:57;19.90;99.90
10472;DHT22;5283;48.876;8.962;2022-10-14T12:57:31;19.90;99.90
10472;DHT22;5283;48.876;8.962;2022-10-14T13:00:05;20.00;99.90
10472;DHT22;5283;48.876;8.962;2022-10-14T13:02:43;20.10;99.90
10472;DHT22;5283;48.876;8.962;2022-10-14T13:08:12;19.90;99.90
10472;DHT22;5283;48.876;8.962;2022-10-14T13:18:53;19.80;99.90
10472;DHT22;5283;48.876;8.962;2022-10-14T13:21:29;19.70;99.90
10472;DHT22;5283;48.876;8.962;2022-10-14T13:24:22;19.90;99.90
10472;DHT22;5283;48.876;8.962;2022-10-14T13:35:25;19.40;99.90
10472;DHT22;5283;48.876;8.962;2022-10-14T13:38:01;19.10;99.90
10472;DHT22;5283;48.876;8.962;2022-10-14T13:40:32;19.10;99.90
10472;DHT22;5283;48.876;8.962;2022-10-14T13:43:31;18.70;99.90
10472;DHT22;5283;48.876;8.962;2022-10-14T13:46:16;18.60;99.90
10472;DHT22;5283;48.876;8.962;2022-10-14T13:48:54;18.40;99.90
10472;DHT22;5283;48.876;8.962;2022-10-14T13:51:42;18.30;99.90
10472;DHT22;5283;48.876;8.962;2022-10-14T13:56:59;18.50;99.90
10472;DHT22;5283;48.876;8.962;2022-10-14T13:59:46;18.40;99.90
10472;DHT22;5283;48.876;8.962;2022-10-14T14:02:33;18.40;99.90
10472;DHT22;5283;48.876;8.962;2022-10-14T14:05:00;17.80;99.90
10472;DHT22;5283;48.876;8.962;2022-10-14T14:07:34;17.40;99.90
10472;DHT22;5283;48.876;8.962;2022-10-14T14:10:23;17.10;99.90
10472;DHT22;5283;48.876;8.962;2022-10-14T14:12:50;16.70;99.90
10472;DHT22;5283;48.876;8.962;2022-10-14T14:15:28;16.50;99.90
10472;DHT22;5283;48.876;8.962;2022-10-14T14:17:55;16.50;99.90
10472;DHT22;5283;48.876;8.962;2022-10-14T14:20:24;16.50;99.90
10472;DHT22;5283;48.876;8.962;2022-10-14T14:22:51;16.60;99.90
10472;DHT22;5283;48.876;8.962;2022-10-14T14:25:20;16.70;99.90
10472;DHT22;5283;48.876;8.962;2022-10-14T14:28:00;16.70;99.90
10472;DHT22;5283;48.876;8.962;2022-10-14T14:32:58;16.70;99.90
10472;DHT22;5283;48.876;8.962;2022-10-14T14:35:26;16.60;99.90
10472;DHT22;5283;48.876;8.962;2022-10-14T14:37:53;16.50;99.90
10472;DHT22;5283;48.876;8.962;2022-10-14T14:40:24;16.40;99.90
10472;DHT22;5283;48.876;8.962;2022-10-14T14:42:54;16.40;99.90
10472;DHT22;5283;48.876;8.962;2022-10-14T14:45:23;16.40;99.90
10472;DHT22;5283;48.876;8.962;2022-10-14T14:47:56;16.40;99.90
10472;DHT22;5283;48.876;8.962;2022-10-14T14:50:39;16.40;99.90
10472;DHT22;5283;48.876;8.962;2022-10-14T14:53:21;16.30;99.90
10472;DHT22;5283;48.876;8.962;2022-10-14T14:58:37;16.40;99.90
10472;DHT22;5283;48.876;8.962;2022-10-14T15:01:05;16.30;99.90
10472;DHT22;5283;48.876;8.962;2022-10-14T15:06:16;16.20;99.90
10472;DHT22;5283;48.876;8.962;2022-10-14T15:08:49;16.20;99.90
10472;DHT22;5283;48.876;8.962;2022-10-14T15:11:17;16.20;99.90
10472;DHT22;5283;48.876;8.962;2022-10-14T15:13:50;16.20;99.90
10472;DHT22;5283;48.876;8.962;2022-10-14T15:16:54;16.20;99.90
10472;DHT22;5283;48.876;8.962;2022-10-14T15:19:30;16.20;99.90
10472;DHT22;5283;48.876;8.962;2022-10-14T15:22:53;16.20;99.90
10472;DHT22;5283;48.876;8.962;2022-10-14T15:24:56;16.30;99.90
10472;DHT22;5283;48.876;8.962;2022-10-14T15:32:49;16.20;99.90
10472;DHT22;5283;48.876;8.962;2022-10-14T15:35:18;16.10;99.90
10472;DHT22;5283;48.876;8.962;2022-10-14T15:37:46;16.10;99.90
10472;DHT22;5283;48.876;8.962;2022-10-14T15:40:16;16.10;99.90
10472;DHT22;5283;48.876;8.962;2022-10-14T15:42:45;16.10;99.90
10472;DHT22;5283;48.876;8.962;2022-10-14T15:45:13;16.00;99.90
10472;DHT22;5283;48.876;8.962;2022-10-14T15:47:40;16.00;99.90
10472;DHT22;5283;48.876;8.962;2022-10-14T15:52:40;15.90;99.90
10472;DHT22;5283;48.876;8.962;2022-10-14T15:55:22;15.80;99.90
10472;DHT22;5283;48.876;8.962;2022-10-14T15:57:49;15.70;99.90
10472;DHT22;5283;48.876;8.962;2022-10-14T16:00:18;15.60;99.90
10472;DHT22;5283;48.876;8.962;2022-10-14T16:02:50;15.60;99.90
10472;DHT22;5283;48.876;8.962;2022-10-14T16:05:20;15.50;99.90
10472;DHT22;5283;48.876;8.962;2022-10-14T16:07:47;15.40;99.90
10472;DHT22;5283;48.876;8.962;2022-10-14T16:10:17;15.30;99.90
10472;DHT22;5283;48.876;8.962;2022-10-14T16:12:44;15.30;99.90
10472;DHT22;5283;48.876;8.962;2022-10-14T16:18:06;15.10;99.90
10472;DHT22;5283;48.876;8.962;2022-10-14T16:20:32;15.10;99.90
10472;DHT22;5283;48.876;8.962;2022-10-14T16:22:59;15.00;99.90
10472;DHT22;5283;48.876;8.962;2022-10-14T16:25:34;15.00;99.90
10472;DHT22;5283;48.876;8.962;2022-10-14T16:28:05;14.90;99.90
10472;DHT22;5283;48.876;8.962;2022-10-14T16:30:35;14.90;99.90
10472;DHT22;5283;48.876;8.962;2022-10-14T16:33:03;14.90;99.90
10472;DHT22;5283;48.876;8.962;2022-10-14T16:35:30;14.80;99.90
10472;DHT22;5283;48.876;8.962;2022-10-14T16:37:57;14.80;99.90
10472;DHT22;5283;48.876;8.962;2022-10-14T16:40:24;14.80;99.90
10472;DHT22;5283;48.876;8.962;2022-10-14T16:42:50;14.70;99.90
10472;DHT22;5283;48.876;8.962;2022-10-14T16:45:17;14.70;99.90
10472;DHT22;5283;48.876;8.962;2022-10-14T16:47:44;14.60;99.90
10472;DHT22;5283;48.876;8.962;2022-10-14T16:50:11;14.60;99.90
10472;DHT22;5283;48.876;8.962;2022-10-14T16:52:38;14.60;99.90
10472;DHT22;5283;48.876;8.962;2022-10-14T16:55:24;14.60;99.90
10472;DHT22;5283;48.876;8.962;2022-10-14T16:57:51;14.50;99.90
10472;DHT22;5283;48.876;8.962;2022-10-14T17:00:17;14.50;99.90
10472;DHT22;5283;48.876;8.962;2022-10-14T17:02:49;14.50;99.90
10472;DHT22;5283;48.876;8.962;2022-10-14T17:05:16;14.40;99.90
10472;DHT22;5283;48.876;8.962;2022-10-14T17:07:42;14.40;99.90
10472;DHT22;5283;48.876;8.962;2022-10-14T17:10:09;14.40;99.90
10472;DHT22;5283;48.876;8.962;2022-10-14T17:12:37;14.40;99.90
10472;DHT22;5283;48.876;8.962;2022-10-14T17:15:05;14.30;99.90
10472;DHT22;5283;48.876;8.962;2022-10-14T17:17:32;14.30;99.90
10472;DHT22;5283;48.876;8.962;2022-10-14T17:19:58;14.30;99.90
10472;DHT22;5283;48.876;8.962;2022-10-14T17:22:25;14.20;99.90
10472;DHT22;5283;48.876;8.962;2022-10-14T17:24:52;14.20;99.90
10472;DHT22;5283;48.876;8.962;2022-10-14T17:27:20;14.10;99.90
10472;DHT22;5283;48.876;8.962;2022-10-14T17:29:49;14.10;99.90
10472;DHT22;5283;48.876;8.962;2022-10-14T17:32:17;14.00;99.90
10472;DHT22;5283;48.876;8.962;2022-10-14T17:34:44;14.00;99.90
10472;DHT22;5283;48.876;8.962;2022-10-14T17:37:11;14.00;99.90
10472;DHT22;5283;48.876;8.962;2022-10-14T17:39:37;13.90;99.90
10472;DHT22;5283;48.876;8.962;2022-10-14T17:42:04;14.00;99.90
10472;DHT22;5283;48.876;8.962;2022-10-14T17:44:31;14.00;99.90
10472;DHT22;5283;48.876;8.962;2022-10-14T17:46:58;14.00;99.90
10472;DHT22;5283;48.876;8.962;2022-10-14T17:49:26;14.00;99.90
10472;DHT22;5283;48.876;8.962;2022-10-14T17:51:54;14.00;99.90
10472;DHT22;5283;48.876;8.962;2022-10-14T17:54:21;14.00;99.90
10472;DHT22;5283;48.876;8.962;2022-10-14T17:56:48;14.00;99.90
10472;DHT22;5283;48.876;8.962;2022-10-14T17:59:14;14.00;99.90
10472;DHT22;5283;48.876;8.962;2022-10-14T18:01:41;14.00;99.90
10472;DHT22;5283;48.876;8.962;2022-10-14T18:04:27;14.00;99.90
10472;DHT22;5283;48.876;8.962;2022-10-14T18:06:54;14.00;99.90
10472;DHT22;5283;48.876;8.962;2022-10-14T18:09:20;14.00;99.90
10472;DHT22;5283;48.876;8.962;2022-10-14T18:11:47;14.00;99.90
10472;DHT22;5283;48.876;8.962;2022-10-14T18:14:36;13.90;99.90